createdAt,value
2022-12-26T00:00:54.507Z,2.90
2022-12-26T00:03:22.343Z,3.10
2022-12-26T00:05:49.727Z,2.83
2022-12-26T00:08:17.034Z,2.77
2022-12-26T00:10:44.479Z,2.70
2022-12-26T00:13:39.500Z,2.77
2022-12-26T00:15:59.094Z,2.73
2022-12-26T00:18:26.430Z,2.20
2022-12-26T00:20:53.795Z,1.73
2022-12-26T00:23:21.120Z,2.27
2022-12-26T00:25:48.554Z,2.57
2022-12-26T00:28:15.946Z,2.33
2022-12-26T00:30:43.253Z,2.67
2022-12-26T00:33:10.538Z,2.53
2022-12-26T00:35:37.884Z,2.50
2022-12-26T00:38:05.169Z,2.07
2022-12-26T00:40:32.460Z,1.80
2022-12-26T00:42:59.776Z,2.80
2022-12-26T00:45:27.140Z,2.67
2022-12-26T00:47:54.585Z,2.13
2022-12-26T00:50:21.906Z,2.40
2022-12-26T00:52:49.177Z,1.93
2022-12-26T00:55:16.529Z,1.73
2022-12-26T00:57:43.815Z,2.03
2022-12-26T01:00:11.400Z,1.60
2022-12-26T01:02:38.884Z,1.90
2022-12-26T01:05:10.727Z,2.07
2022-12-26T01:08:21.427Z,2.20
2022-12-26T01:10:25.996Z,2.00
2022-12-26T01:12:53.312Z,2.10
2022-12-26T01:15:20.799Z,2.10
2022-12-26T01:17:48.238Z,1.97
2022-12-26T01:20:15.561Z,2.00
2022-12-26T01:22:42.894Z,1.90
2022-12-26T01:25:11.738Z,1.93
2022-12-26T01:27:39.064Z,2.10
2022-12-26T01:30:07.013Z,2.30
2022-12-26T01:32:34.249Z,1.97
2022-12-26T01:35:01.605Z,1.90
2022-12-26T01:37:28.962Z,2.37
2022-12-26T01:39:56.281Z,2.27
2022-12-26T01:42:24.828Z,2.70
2022-12-26T01:44:55.158Z,1.93
2022-12-26T01:47:24.189Z,1.80
2022-12-26T01:49:53.858Z,2.50
2022-12-26T01:52:26.162Z,2.40
2022-12-26T01:54:54.670Z,1.87
2022-12-26T01:57:24.353Z,2.20
2022-12-26T01:59:52.907Z,1.83
2022-12-26T02:02:23.414Z,1.70
2022-12-26T02:05:10.473Z,1.93
2022-12-26T02:07:40.075Z,1.53
2022-12-26T02:10:08.951Z,1.97
2022-12-26T02:12:38.822Z,2.40
2022-12-26T02:15:17.564Z,1.93
2022-12-26T02:17:47.312Z,1.93
2022-12-26T02:20:20.736Z,1.90
2022-12-26T02:23:03.563Z,1.80
2022-12-26T02:25:49.967Z,2.00
2022-12-26T02:28:37.715Z,1.97
2022-12-26T02:31:12.672Z,2.13
2022-12-26T02:33:47.648Z,1.60
2022-12-26T02:36:20.739Z,2.87
2022-12-26T02:39:43.539Z,2.13
2022-12-26T02:42:06.173Z,2.53
2022-12-26T02:45:04.558Z,2.13
2022-12-26T02:47:45.406Z,2.20
2022-12-26T02:50:41.834Z,2.67
2022-12-26T02:53:34.325Z,1.73
2022-12-26T02:56:25.283Z,2.07
2022-12-26T02:59:16.501Z,2.23
2022-12-26T03:02:05.212Z,2.53
2022-12-26T03:04:52.855Z,1.93
2022-12-26T03:07:41.268Z,2.80
2022-12-26T03:10:34.114Z,2.50
2022-12-26T03:13:12.592Z,2.10
2022-12-26T03:16:10.739Z,2.27
2022-12-26T03:18:59.410Z,1.90
2022-12-26T03:21:29.591Z,1.63
2022-12-26T03:23:57.411Z,2.27
2022-12-26T03:26:39.937Z,1.83
2022-12-26T03:29:36.548Z,2.17
2022-12-26T03:32:06.240Z,2.07
2022-12-26T03:34:34.841Z,1.60
2022-12-26T03:37:17.490Z,2.20
2022-12-26T03:40:21.943Z,1.83
2022-12-26T03:43:13.819Z,2.07
2022-12-26T03:46:02.950Z,1.73
2022-12-26T03:49:00.926Z,2.13
2022-12-26T03:51:58.120Z,1.93
2022-12-26T03:54:53.222Z,1.73
2022-12-26T03:57:41.136Z,1.90
2022-12-26T04:00:28.942Z,1.60
2022-12-26T04:03:18.500Z,1.87
2022-12-26T04:06:06.515Z,1.63
2022-12-26T04:09:14.790Z,1.97
2022-12-26T04:12:03.687Z,1.90
2022-12-26T04:14:58.763Z,1.27
2022-12-26T04:17:48.893Z,2.07
2022-12-26T04:20:22.983Z,1.50
2022-12-26T04:23:13.706Z,1.50
2022-12-26T04:26:05.634Z,1.97
2022-12-26T04:28:51.981Z,1.43
2022-12-26T04:31:54.232Z,1.60
2022-12-26T04:34:45.545Z,1.17
2022-12-26T04:37:37.475Z,1.47
2022-12-26T04:40:26.545Z,1.60
2022-12-26T04:43:47.244Z,1.67
2022-12-26T04:46:00.573Z,1.60
2022-12-26T04:48:46.624Z,1.43
2022-12-26T04:51:13.951Z,1.50
2022-12-26T04:53:41.276Z,1.17
2022-12-26T04:56:09.208Z,1.47
2022-12-26T04:58:36.446Z,1.77
2022-12-26T05:01:22.626Z,1.67
2022-12-26T05:04:08.811Z,1.13
2022-12-26T05:07:05.246Z,1.40
2022-12-26T05:09:35.976Z,1.23
2022-12-26T05:12:04.882Z,1.60
2022-12-26T05:14:32.283Z,1.20
2022-12-26T05:17:18.569Z,1.27
2022-12-26T05:20:05.058Z,1.17
2022-12-26T05:22:52.296Z,1.47
2022-12-26T05:25:40.267Z,1.43
2022-12-26T05:28:28.273Z,0.97
2022-12-26T05:30:55.631Z,0.97
2022-12-26T05:33:41.617Z,1.13
2022-12-26T05:36:09.851Z,0.80
2022-12-26T05:38:37.319Z,0.90
2022-12-26T05:41:04.812Z,1.10
2022-12-26T05:43:32.210Z,0.83
2022-12-26T05:45:59.656Z,1.10
2022-12-26T05:48:26.988Z,1.10
2022-12-26T05:50:58.494Z,1.13
2022-12-26T05:53:25.832Z,1.20
2022-12-26T05:55:53.263Z,1.17
2022-12-26T05:58:20.625Z,0.93
2022-12-26T06:00:48.051Z,0.83
2022-12-26T06:03:15.487Z,0.83
2022-12-26T06:05:42.938Z,0.87
2022-12-26T06:08:10.247Z,1.00
2022-12-26T06:10:37.537Z,1.10
2022-12-26T06:13:04.860Z,0.83
2022-12-26T06:15:32.154Z,1.00
2022-12-26T06:17:59.433Z,0.87
2022-12-26T06:20:26.767Z,0.83
2022-12-26T06:22:54.164Z,0.83
2022-12-26T06:25:21.659Z,1.10
2022-12-26T06:27:48.957Z,0.80
2022-12-26T06:30:16.276Z,1.00
2022-12-26T06:32:43.522Z,1.13
2022-12-26T06:35:10.984Z,0.90
2022-12-26T06:37:38.513Z,1.00
2022-12-26T06:40:06.252Z,0.83
2022-12-26T06:42:33.542Z,0.77
2022-12-26T06:45:00.891Z,1.10
2022-12-26T06:47:28.157Z,0.80
2022-12-26T06:49:55.440Z,1.10
2022-12-26T06:52:22.741Z,1.17
2022-12-26T06:54:50.023Z,0.90
2022-12-26T06:57:17.357Z,1.00
2022-12-26T06:59:44.694Z,1.10
2022-12-26T07:02:12.162Z,1.00
2022-12-26T07:04:40.771Z,1.03
2022-12-26T07:07:08.004Z,0.97
2022-12-26T07:09:35.285Z,1.13
2022-12-26T07:12:02.600Z,0.83
2022-12-26T07:14:29.897Z,1.10
2022-12-26T07:16:57.204Z,1.00
2022-12-26T07:19:24.799Z,1.00
2022-12-26T07:21:52.118Z,0.80
2022-12-26T07:24:20.970Z,0.80
2022-12-26T07:26:48.570Z,1.00
2022-12-26T07:29:16.473Z,0.90
2022-12-26T07:31:43.908Z,1.03
2022-12-26T07:34:11.463Z,0.80
2022-12-26T07:36:38.756Z,0.73
2022-12-26T07:39:06.081Z,0.80
2022-12-26T07:41:52.367Z,0.90
2022-12-26T07:44:19.782Z,0.93
2022-12-26T07:46:47.069Z,0.80
2022-12-26T07:49:14.561Z,0.77
2022-12-26T07:51:42.199Z,0.93
2022-12-26T07:54:11.685Z,1.10
2022-12-26T07:56:39.673Z,0.97
2022-12-26T07:59:07.067Z,1.10
2022-12-26T08:01:34.644Z,0.90
2022-12-26T08:04:02.180Z,0.77
2022-12-26T08:06:29.562Z,0.80
2022-12-26T08:08:56.900Z,0.97
2022-12-26T08:11:24.570Z,0.93
2022-12-26T08:13:52.607Z,0.63
2022-12-26T08:16:20.665Z,1.00
2022-12-26T08:18:48.127Z,0.83
2022-12-26T08:21:15.459Z,0.77
2022-12-26T08:23:42.908Z,0.67
2022-12-26T08:26:11.599Z,0.60
2022-12-26T08:28:42.425Z,0.80
2022-12-26T08:31:11.194Z,0.90
2022-12-26T08:33:38.505Z,0.77
2022-12-26T08:36:06.483Z,0.80
2022-12-26T08:38:34.219Z,0.90
2022-12-26T08:41:01.840Z,1.10
2022-12-26T08:43:52.830Z,0.60
2022-12-26T08:46:17.375Z,0.80
2022-12-26T08:48:46.452Z,1.00
2022-12-26T08:51:15.072Z,0.80
2022-12-26T08:53:42.909Z,0.97
2022-12-26T08:56:12.613Z,0.80
2022-12-26T08:58:39.932Z,0.80
2022-12-26T09:01:15.408Z,1.00
2022-12-26T09:03:43.345Z,0.77
2022-12-26T09:06:11.755Z,0.83
2022-12-26T09:08:39.654Z,0.83
2022-12-26T09:11:07.964Z,0.80
2022-12-26T09:13:35.386Z,0.80
2022-12-26T09:16:10.619Z,1.00
2022-12-26T09:18:38.293Z,1.00
2022-12-26T09:21:06.699Z,0.70
2022-12-26T09:23:35.143Z,0.90
2022-12-26T09:26:10.292Z,1.10
2022-12-26T09:28:37.991Z,1.03
2022-12-26T09:31:06.996Z,0.90
2022-12-26T09:33:37.678Z,1.37
2022-12-26T09:36:12.551Z,1.00
2022-12-26T09:38:41.859Z,0.80
2022-12-26T09:41:15.455Z,1.00
2022-12-26T09:43:55.256Z,0.77
2022-12-26T09:46:22.763Z,0.80
2022-12-26T09:48:55.651Z,0.90
2022-12-26T09:51:23.111Z,1.17
2022-12-26T09:53:53.247Z,0.80
2022-12-26T09:57:01.109Z,0.77
2022-12-26T09:59:14.664Z,0.90
2022-12-26T10:01:43.524Z,1.07
2022-12-26T10:04:37.448Z,0.80
2022-12-26T10:07:04.824Z,0.93
2022-12-26T10:09:35.312Z,0.90
2022-12-26T10:12:05.811Z,0.80
2022-12-26T10:14:54.767Z,0.73
2022-12-26T10:17:22.031Z,0.87
2022-12-26T10:20:06.059Z,0.80
2022-12-26T10:22:36.414Z,0.70
2022-12-26T10:25:04.992Z,0.80
2022-12-26T10:27:40.119Z,1.00
2022-12-26T10:30:09.086Z,1.43
2022-12-26T10:32:42.317Z,0.73
2022-12-26T10:35:19.174Z,0.80
2022-12-26T10:37:47.755Z,0.77
2022-12-26T10:40:19.592Z,0.70
2022-12-26T10:42:58.420Z,0.80
2022-12-26T10:45:36.676Z,0.90
2022-12-26T10:48:04.220Z,0.80
2022-12-26T10:50:32.752Z,0.83
2022-12-26T10:53:00.710Z,0.87
2022-12-26T10:55:34.828Z,0.80
2022-12-26T10:58:07.879Z,0.93
2022-12-26T11:00:35.252Z,1.10
2022-12-26T11:03:13.226Z,0.97
2022-12-26T11:06:07.706Z,0.80
2022-12-26T11:08:36.294Z,0.80
2022-12-26T11:11:10.517Z,0.83
2022-12-26T11:13:39.830Z,1.00
2022-12-26T11:16:08.065Z,0.73
2022-12-26T11:18:38.194Z,0.80
2022-12-26T11:21:13.884Z,0.80
2022-12-26T11:23:41.234Z,0.90
2022-12-26T11:26:20.118Z,1.10
2022-12-26T11:28:47.681Z,0.80
2022-12-26T11:31:25.308Z,0.87
2022-12-26T11:33:53.719Z,0.90
2022-12-26T11:36:22.652Z,0.70
2022-12-26T11:39:12.871Z,0.80
2022-12-26T11:41:42.436Z,0.90
2022-12-26T11:44:16.519Z,0.80
2022-12-26T11:46:49.021Z,0.80
2022-12-26T11:49:21.930Z,0.93
2022-12-26T11:51:54.175Z,0.80
2022-12-26T11:54:26.886Z,0.90
2022-12-26T11:57:09.168Z,1.00
2022-12-26T11:59:36.511Z,0.80
2022-12-26T12:02:15.637Z,1.00
2022-12-26T12:04:43.391Z,0.80
2022-12-26T12:07:17.666Z,0.80
2022-12-26T12:09:50.941Z,0.80
2022-12-26T12:12:47.597Z,1.00
2022-12-26T12:15:14.844Z,0.90
2022-12-26T12:18:01.057Z,1.20
2022-12-26T12:20:30.500Z,1.20
2022-12-26T12:23:06.725Z,0.90
2022-12-26T12:25:38.717Z,0.80
2022-12-26T12:28:23.711Z,0.80
2022-12-26T12:31:03.206Z,0.82
2022-12-26T12:33:42.697Z,0.80
2022-12-26T12:36:10.483Z,1.13
2022-12-26T12:38:37.778Z,1.00
2022-12-26T12:41:09.413Z,0.90
2022-12-26T12:43:42.056Z,1.07
2022-12-26T12:46:12.417Z,1.23
2022-12-26T12:48:46.176Z,1.07
2022-12-26T12:51:24.381Z,1.23
2022-12-26T12:54:04.200Z,1.33
2022-12-26T12:56:50.434Z,1.10
2022-12-26T12:59:28.539Z,1.03
2022-12-26T13:02:00.507Z,1.07
2022-12-26T13:04:38.224Z,0.90
2022-12-26T13:07:08.822Z,1.30
2022-12-26T13:09:44.610Z,0.90
2022-12-26T13:12:30.645Z,0.80
2022-12-26T13:15:01.286Z,1.00
2022-12-26T13:17:34.141Z,0.83
2022-12-26T13:20:05.299Z,1.10
2022-12-26T13:22:55.690Z,0.80
2022-12-26T13:25:27.402Z,0.87
2022-12-26T13:27:56.585Z,0.80
2022-12-26T13:30:23.948Z,1.00
2022-12-26T13:32:56.361Z,0.90
2022-12-26T13:35:43.186Z,0.90
2022-12-26T13:38:10.592Z,1.00
2022-12-26T13:40:38.086Z,0.93
2022-12-26T13:43:42.242Z,1.00
2022-12-26T13:46:29.635Z,0.80
2022-12-26T13:48:58.693Z,0.90
2022-12-26T13:51:45.075Z,0.87
2022-12-26T13:54:13.454Z,0.80
2022-12-26T13:56:45.702Z,1.00
2022-12-26T13:59:16.710Z,1.17
2022-12-26T14:01:50.039Z,0.90
2022-12-26T14:04:36.008Z,1.00
2022-12-26T14:07:06.532Z,1.00
2022-12-26T14:09:43.267Z,1.17
2022-12-26T14:12:19.877Z,1.10
2022-12-26T14:14:54.832Z,1.00
2022-12-26T14:17:51.765Z,0.80
2022-12-26T14:20:19.048Z,1.10
2022-12-26T14:22:47.607Z,1.00
2022-12-26T14:25:44.753Z,1.10
2022-12-26T14:28:38.686Z,1.00
2022-12-26T14:31:22.598Z,1.10
2022-12-26T14:33:49.907Z,1.10
2022-12-26T14:36:36.976Z,0.90
2022-12-26T14:39:24.358Z,0.90
2022-12-26T14:42:25.564Z,1.00
2022-12-26T14:44:59.829Z,1.00
2022-12-26T14:47:42.612Z,0.90
2022-12-26T14:50:28.795Z,1.00
2022-12-26T14:52:56.219Z,1.00
2022-12-26T14:55:40.609Z,0.90
2022-12-26T14:58:20.164Z,1.00
2022-12-26T15:00:47.956Z,1.07
2022-12-26T15:03:53.899Z,1.10
2022-12-26T15:06:21.212Z,0.80
2022-12-26T15:08:51.175Z,0.90
2022-12-26T15:11:21.481Z,1.00
2022-12-26T15:14:11.869Z,0.90
2022-12-26T15:16:39.261Z,1.17
2022-12-26T15:19:06.564Z,0.90
2022-12-26T15:21:52.904Z,0.70
2022-12-26T15:24:20.231Z,0.80
2022-12-26T15:26:50.603Z,0.80
2022-12-26T15:29:33.209Z,0.90
2022-12-26T15:32:04.897Z,1.30
2022-12-26T15:34:47.632Z,0.90
2022-12-26T15:37:18.228Z,0.90
2022-12-26T15:39:51.823Z,0.80
2022-12-26T15:42:37.485Z,0.80
2022-12-26T15:45:15.388Z,0.80
2022-12-26T15:47:45.655Z,0.93
2022-12-26T15:50:24.156Z,0.70
2022-12-26T15:52:56.599Z,0.70
2022-12-26T15:55:27.019Z,1.20
2022-12-26T15:58:12.642Z,0.90
2022-12-26T16:00:48.312Z,0.80
2022-12-26T16:03:34.503Z,0.90
2022-12-26T16:06:14.146Z,0.70
2022-12-26T16:09:00.303Z,0.90
2022-12-26T16:11:31.894Z,1.00
2022-12-26T16:14:03.936Z,0.90
2022-12-26T16:16:33.168Z,0.77
2022-12-26T16:19:15.785Z,0.80
2022-12-26T16:22:04.103Z,1.10
2022-12-26T16:24:33.094Z,0.90
2022-12-26T16:27:02.129Z,1.03
2022-12-26T16:29:30.260Z,0.80
2022-12-26T16:32:07.432Z,1.10
2022-12-26T16:34:36.609Z,1.07
2022-12-26T16:37:04.303Z,0.77
2022-12-26T16:39:31.683Z,0.90
2022-12-26T16:41:59.071Z,0.80
2022-12-26T16:44:31.377Z,0.90
2022-12-26T16:47:01.287Z,0.90
2022-12-26T16:49:29.496Z,1.10
2022-12-26T16:51:57.029Z,0.73
2022-12-26T16:54:29.247Z,1.03
2022-12-26T16:57:05.846Z,0.80
2022-12-26T16:59:41.587Z,0.70
2022-12-26T17:02:14.297Z,1.00
2022-12-26T17:04:41.941Z,0.80
2022-12-26T17:07:10.096Z,0.80
2022-12-26T17:09:47.523Z,1.00
2022-12-26T17:12:21.401Z,0.97
2022-12-26T17:14:49.799Z,0.90
2022-12-26T17:17:23.229Z,1.00
2022-12-26T17:19:54.165Z,0.90
2022-12-26T17:22:32.338Z,0.80
2022-12-26T17:25:18.108Z,0.80
2022-12-26T17:27:45.846Z,1.00
2022-12-26T17:30:22.274Z,0.90
2022-12-26T17:32:49.677Z,0.80
2022-12-26T17:35:25.619Z,0.80
2022-12-26T17:37:57.770Z,1.00
2022-12-26T17:40:28.151Z,0.90
2022-12-26T17:42:56.996Z,0.97
2022-12-26T17:45:25.786Z,0.90
2022-12-26T17:47:54.015Z,0.90
2022-12-26T17:50:22.331Z,0.90
2022-12-26T17:52:49.788Z,0.90
2022-12-26T17:55:24.949Z,0.80
2022-12-26T17:57:52.543Z,0.80
2022-12-26T18:00:21.729Z,0.90
2022-12-26T18:02:49.440Z,1.00
2022-12-26T18:05:17.149Z,1.20
2022-12-26T18:07:45.429Z,0.90
2022-12-26T18:10:23.481Z,0.90
2022-12-26T18:12:51.297Z,1.30
2022-12-26T18:15:21.020Z,0.90
2022-12-26T18:17:49.147Z,1.07
2022-12-26T18:20:24.147Z,1.20
2022-12-26T18:22:52.055Z,1.00
2022-12-26T18:25:20.733Z,0.90
2022-12-26T18:27:48.358Z,1.03
2022-12-26T18:30:20.668Z,0.90
2022-12-26T18:32:48.921Z,0.90
2022-12-26T18:35:16.725Z,0.90
2022-12-26T18:37:45.327Z,0.90
2022-12-26T18:40:36.195Z,0.90
2022-12-26T18:43:04.367Z,1.20
2022-12-26T18:45:32.314Z,0.90
2022-12-26T18:48:00.292Z,1.00
2022-12-26T18:50:28.380Z,0.90
2022-12-26T18:52:55.734Z,0.90
2022-12-26T18:55:23.798Z,1.23
2022-12-26T18:57:51.114Z,1.00
2022-12-26T19:00:18.815Z,1.60
2022-12-26T19:02:47.461Z,1.37
2022-12-26T19:05:26.191Z,1.00
2022-12-26T19:07:53.751Z,1.00
2022-12-26T19:10:22.096Z,1.00
2022-12-26T19:12:49.445Z,0.90
2022-12-26T19:15:16.811Z,1.00
2022-12-26T19:17:44.135Z,1.20
2022-12-26T19:20:18.191Z,1.00
2022-12-26T19:22:45.635Z,0.93
2022-12-26T19:25:13.581Z,1.00
2022-12-26T19:27:40.960Z,1.00
2022-12-26T19:30:08.694Z,0.93
2022-12-26T19:32:36.178Z,0.90
2022-12-26T19:35:03.567Z,0.97
2022-12-26T19:37:30.895Z,1.00
2022-12-26T19:39:59.031Z,0.93
2022-12-26T19:42:27.237Z,1.00
2022-12-26T19:44:54.672Z,0.80
2022-12-26T19:47:22.285Z,0.80
2022-12-26T19:49:49.572Z,0.90
2022-12-26T19:52:16.974Z,1.00
2022-12-26T19:54:44.274Z,0.90
2022-12-26T19:57:11.586Z,0.90
2022-12-26T19:59:38.875Z,0.90
2022-12-26T20:02:06.206Z,0.90
2022-12-26T20:04:33.681Z,0.90
2022-12-26T20:07:01.272Z,0.90
2022-12-26T20:09:29.195Z,0.90
2022-12-26T20:11:56.815Z,1.00
2022-12-26T20:14:25.973Z,0.87
2022-12-26T20:17:06.550Z,0.90
2022-12-26T20:19:34.717Z,1.00
2022-12-26T20:22:01.984Z,0.90
2022-12-26T20:24:29.297Z,0.97
2022-12-26T20:26:56.635Z,0.90
2022-12-26T20:29:23.992Z,0.90
2022-12-26T20:31:55.093Z,1.10
2022-12-26T20:34:22.696Z,0.90
2022-12-26T20:36:50.021Z,0.80
2022-12-26T20:39:18.559Z,1.10
2022-12-26T20:41:46.605Z,1.00
2022-12-26T20:44:14.267Z,0.87
2022-12-26T20:46:41.924Z,1.00
2022-12-26T20:49:09.916Z,0.90
2022-12-26T20:51:38.650Z,1.10
2022-12-26T20:54:06.555Z,1.00
2022-12-26T20:56:34.293Z,0.90
2022-12-26T20:59:01.713Z,1.20
2022-12-26T21:01:29.434Z,0.87
2022-12-26T21:03:57.559Z,0.90
2022-12-26T21:06:28.053Z,1.00
2022-12-26T21:08:56.390Z,0.80
2022-12-26T21:11:34.319Z,0.90
2022-12-26T21:14:03.122Z,1.17
2022-12-26T21:16:32.025Z,0.90
2022-12-26T21:18:59.525Z,0.90
2022-12-26T21:21:28.589Z,1.00
2022-12-26T21:24:00.574Z,0.90
2022-12-26T21:26:27.911Z,1.03
2022-12-26T21:28:59.832Z,0.90
2022-12-26T21:31:27.723Z,0.90
2022-12-26T21:33:55.965Z,0.90
2022-12-26T21:36:23.587Z,0.90
2022-12-26T21:38:50.965Z,1.03
2022-12-26T21:41:18.222Z,1.00
2022-12-26T21:43:45.755Z,1.17
2022-12-26T21:46:17.872Z,0.80
2022-12-26T21:48:50.115Z,0.80
2022-12-26T21:51:18.624Z,0.90
2022-12-26T21:53:46.557Z,0.83
2022-12-26T21:56:14.537Z,0.80
2022-12-26T21:59:01.275Z,1.13
2022-12-26T22:01:29.562Z,0.80
2022-12-26T22:04:15.718Z,0.87
2022-12-26T22:06:43.178Z,0.80
2022-12-26T22:09:10.978Z,0.80
2022-12-26T22:11:56.903Z,0.80
2022-12-26T22:14:24.671Z,1.10
2022-12-26T22:16:53.115Z,0.87
2022-12-26T22:19:20.755Z,1.13
2022-12-26T22:21:48.084Z,0.90
2022-12-26T22:24:15.369Z,0.80
2022-12-26T22:26:42.802Z,0.80
2022-12-26T22:29:10.164Z,1.00
2022-12-26T22:31:38.154Z,0.90
2022-12-26T22:34:07.268Z,0.80
2022-12-26T22:36:35.022Z,1.20
2022-12-26T22:39:02.417Z,1.20
2022-12-26T22:41:29.789Z,0.83
2022-12-26T22:43:57.302Z,1.03
2022-12-26T22:46:25.134Z,1.00
2022-12-26T22:48:52.533Z,0.70
2022-12-26T22:51:21.454Z,0.80
2022-12-26T22:53:48.785Z,0.90
2022-12-26T22:56:16.131Z,0.80
2022-12-26T22:58:43.471Z,0.70
2022-12-26T23:01:18.153Z,0.90
2022-12-26T23:03:45.890Z,1.00
2022-12-26T23:06:19.285Z,0.83
2022-12-26T23:08:47.096Z,0.80
2022-12-26T23:11:14.520Z,0.80
2022-12-26T23:13:41.954Z,0.80
2022-12-26T23:16:17.907Z,0.80
2022-12-26T23:19:11.270Z,0.80
2022-12-26T23:21:39.625Z,0.90
2022-12-26T23:24:08.291Z,1.50
2022-12-26T23:26:35.794Z,1.20
2022-12-26T23:29:21.714Z,0.90
2022-12-26T23:31:48.964Z,0.80
2022-12-26T23:34:16.325Z,0.80
2022-12-26T23:36:43.582Z,0.70
2022-12-26T23:39:10.971Z,0.90
2022-12-26T23:41:38.316Z,1.00
2022-12-26T23:44:05.707Z,1.17
2022-12-26T23:46:33.093Z,1.00
2022-12-26T23:49:00.483Z,0.80
2022-12-26T23:51:28.350Z,1.23
2022-12-26T23:53:55.648Z,0.97
2022-12-26T23:56:23.009Z,0.80
2022-12-26T23:58:50.980Z,0.80
